createdAt,value
2022-09-25T00:00:50.117Z,14.40
2022-09-25T00:03:17.554Z,14.30
2022-09-25T00:05:45.618Z,14.30
2022-09-25T00:08:12.709Z,14.40
2022-09-25T00:10:49.472Z,14.30
2022-09-25T00:13:16.935Z,14.30
2022-09-25T00:15:47.668Z,14.20
2022-09-25T00:18:14.482Z,14.20
2022-09-25T00:20:41.166Z,14.30
2022-09-25T00:23:07.678Z,14.30
2022-09-25T00:25:36.652Z,14.30
2022-09-25T00:28:05.997Z,14.30
2022-09-25T00:30:34.448Z,14.30
2022-09-25T00:33:03.269Z,14.30
2022-09-25T00:35:33.360Z,14.30
2022-09-25T00:37:59.874Z,14.30
2022-09-25T00:40:28.734Z,14.30
2022-09-25T00:42:57.550Z,14.30
2022-09-25T00:45:24.070Z,14.40
2022-09-25T00:47:56.532Z,14.30
2022-09-25T00:50:41.206Z,14.30
2022-09-25T00:53:33.226Z,14.30
2022-09-25T00:56:01.468Z,14.30
2022-09-25T00:58:28.786Z,14.20
2022-09-25T01:00:55.573Z,14.30
2022-09-25T01:03:23.082Z,14.30
2022-09-25T01:05:49.839Z,14.20
2022-09-25T01:08:22.402Z,14.20
2022-09-25T01:10:51.102Z,14.30
2022-09-25T01:13:20.340Z,14.20
2022-09-25T01:15:46.846Z,14.20
2022-09-25T01:18:13.368Z,14.20
2022-09-25T01:20:58.483Z,14.20
2022-09-25T01:23:33.460Z,14.20
2022-09-25T01:26:07.121Z,14.20
2022-09-25T01:28:52.488Z,14.20
2022-09-25T01:31:24.858Z,14.20
2022-09-25T01:33:55.835Z,14.20
2022-09-25T01:36:28.018Z,14.10
2022-09-25T01:39:00.511Z,14.10
2022-09-25T01:41:39.035Z,14.10
2022-09-25T01:44:13.505Z,14.10
2022-09-25T01:46:45.105Z,14.20
2022-09-25T01:49:21.316Z,14.10
2022-09-25T01:51:52.214Z,14.10
2022-09-25T01:54:22.098Z,14.10
2022-09-25T01:56:55.389Z,14.10
2022-09-25T01:59:25.768Z,14.10
2022-09-25T02:01:53.436Z,14.10
2022-09-25T02:04:22.924Z,14.10
2022-09-25T02:06:50.850Z,14.10
2022-09-25T02:09:46.428Z,14.10
2022-09-25T02:12:14.954Z,14.10
2022-09-25T02:15:02.207Z,14.00
2022-09-25T02:17:48.338Z,14.00
2022-09-25T02:20:36.278Z,14.00
2022-09-25T02:23:21.052Z,14.00
2022-09-25T02:26:02.231Z,14.00
2022-09-25T02:28:33.663Z,13.90
2022-09-25T02:31:02.492Z,14.00
2022-09-25T02:33:29.097Z,13.90
2022-09-25T02:35:55.628Z,13.90
2022-09-25T02:38:24.660Z,13.90
2022-09-25T02:40:58.513Z,13.90
2022-09-25T02:43:35.328Z,13.80
2022-09-25T02:46:16.651Z,13.80
2022-09-25T02:49:03.029Z,13.80
2022-09-25T02:51:34.572Z,13.80
2022-09-25T02:54:01.121Z,13.80
2022-09-25T02:56:53.935Z,13.80
2022-09-25T02:59:25.938Z,13.80
2022-09-25T03:01:52.992Z,13.80
2022-09-25T03:04:19.978Z,13.80
2022-09-25T03:06:47.086Z,13.80
2022-09-25T03:09:15.377Z,13.80
2022-09-25T03:11:44.380Z,13.80
2022-09-25T03:14:11.045Z,13.70
2022-09-25T03:16:39.109Z,13.80
2022-09-25T03:19:05.653Z,13.80
2022-09-25T03:21:32.791Z,13.80
2022-09-25T03:23:59.590Z,13.80
2022-09-25T03:26:28.633Z,13.80
2022-09-25T03:28:57.365Z,13.80
2022-09-25T03:31:26.402Z,13.80
2022-09-25T03:33:52.942Z,13.80
2022-09-25T03:36:20.850Z,13.80
2022-09-25T03:39:02.386Z,13.80
2022-09-25T03:41:31.835Z,13.80
2022-09-25T03:44:01.185Z,13.70
2022-09-25T03:46:29.144Z,13.80
2022-09-25T03:48:55.801Z,13.80
2022-09-25T03:51:23.166Z,13.70
2022-09-25T03:53:50.428Z,13.70
2022-09-25T03:56:20.238Z,13.70
2022-09-25T03:58:47.585Z,13.70
2022-09-25T04:01:17.195Z,13.70
2022-09-25T04:03:47.300Z,13.70
2022-09-25T04:06:18.046Z,13.70
2022-09-25T04:08:45.442Z,13.70
2022-09-25T04:11:12.318Z,13.70
2022-09-25T04:13:40.614Z,13.70
2022-09-25T04:16:10.132Z,13.60
2022-09-25T04:18:40.572Z,13.70
2022-09-25T04:21:10.276Z,13.60
2022-09-25T04:23:37.032Z,13.60
2022-09-25T04:26:03.947Z,13.70
2022-09-25T04:28:31.474Z,13.60
2022-09-25T04:30:58.343Z,13.70
2022-09-25T04:33:43.658Z,13.70
2022-09-25T04:36:10.287Z,13.70
2022-09-25T04:38:36.898Z,13.70
2022-09-25T04:41:05.701Z,13.70
2022-09-25T04:43:32.723Z,13.70
2022-09-25T04:46:03.201Z,13.70
2022-09-25T04:48:35.619Z,13.70
2022-09-25T04:51:04.749Z,13.70
2022-09-25T04:53:34.972Z,13.60
2022-09-25T04:56:02.251Z,13.70
2022-09-25T04:58:28.779Z,13.60
2022-09-25T05:00:58.020Z,13.60
2022-09-25T05:03:24.650Z,13.60
2022-09-25T05:05:51.231Z,13.70
2022-09-25T05:08:18.064Z,13.60
2022-09-25T05:10:44.717Z,13.70
2022-09-25T05:13:11.323Z,13.70
2022-09-25T05:15:37.847Z,13.70
2022-09-25T05:18:24.979Z,13.70
2022-09-25T05:20:53.422Z,13.70
2022-09-25T05:23:20.790Z,13.70
2022-09-25T05:26:01.957Z,13.70
2022-09-25T05:28:29.125Z,13.70
2022-09-25T05:30:58.498Z,13.70
2022-09-25T05:33:25.095Z,13.70
2022-09-25T05:35:51.588Z,13.60
2022-09-25T05:38:18.144Z,13.70
2022-09-25T05:40:44.886Z,13.60
2022-09-25T05:43:12.522Z,13.60
2022-09-25T05:45:42.355Z,13.70
2022-09-25T05:48:11.311Z,13.70
2022-09-25T05:50:40.334Z,13.70
2022-09-25T05:53:09.065Z,13.70
2022-09-25T05:55:35.760Z,13.70
2022-09-25T05:58:03.453Z,13.70
2022-09-25T06:00:35.206Z,13.70
2022-09-25T06:03:02.173Z,13.70
2022-09-25T06:05:28.871Z,13.70
2022-09-25T06:07:55.632Z,13.70
2022-09-25T06:10:22.316Z,13.70
2022-09-25T06:12:48.857Z,13.70
2022-09-25T06:15:15.510Z,13.70
2022-09-25T06:17:44.280Z,13.70
2022-09-25T06:20:15.805Z,13.70
2022-09-25T06:22:44.431Z,13.70
2022-09-25T06:25:11.037Z,13.70
2022-09-25T06:27:40.506Z,13.70
2022-09-25T06:30:07.166Z,13.70
2022-09-25T06:32:36.176Z,13.70
2022-09-25T06:35:04.281Z,13.80
2022-09-25T06:37:30.870Z,13.70
2022-09-25T06:39:59.642Z,13.70
2022-09-25T06:42:26.152Z,13.80
2022-09-25T06:44:52.708Z,13.80
2022-09-25T06:47:22.517Z,13.70
2022-09-25T06:49:51.257Z,13.70
2022-09-25T06:52:18.144Z,13.70
2022-09-25T06:54:47.151Z,13.70
2022-09-25T06:57:13.765Z,13.70
2022-09-25T06:59:40.320Z,13.70
2022-09-25T07:02:25.738Z,13.70
2022-09-25T07:04:52.307Z,13.80
2022-09-25T07:07:22.686Z,13.70
2022-09-25T07:09:49.302Z,13.70
2022-09-25T07:12:18.270Z,13.70
2022-09-25T07:14:46.818Z,13.70
2022-09-25T07:17:16.482Z,13.70
2022-09-25T07:19:44.714Z,13.70
2022-09-25T07:22:12.560Z,13.70
2022-09-25T07:24:39.151Z,13.70
2022-09-25T07:27:10.754Z,13.60
2022-09-25T07:29:37.591Z,13.70
2022-09-25T07:32:04.729Z,13.70
2022-09-25T07:34:31.395Z,13.70
2022-09-25T07:36:58.051Z,13.70
2022-09-25T07:39:26.995Z,13.70
2022-09-25T07:41:56.523Z,13.70
2022-09-25T07:44:37.241Z,13.70
2022-09-25T07:47:05.231Z,13.80
2022-09-25T07:49:32.105Z,13.80
2022-09-25T07:51:59.529Z,13.80
2022-09-25T07:54:31.095Z,13.80
2022-09-25T07:56:57.761Z,13.80
2022-09-25T07:59:26.625Z,13.80
2022-09-25T08:01:54.323Z,13.80
2022-09-25T08:04:21.033Z,13.80
2022-09-25T08:06:47.566Z,13.80
2022-09-25T08:09:14.183Z,13.80
2022-09-25T08:11:41.062Z,13.80
2022-09-25T08:14:07.703Z,13.80
2022-09-25T08:16:34.288Z,13.80
2022-09-25T08:19:00.821Z,13.80
2022-09-25T08:21:29.748Z,13.80
2022-09-25T08:23:56.944Z,13.80
2022-09-25T08:26:23.479Z,13.70
2022-09-25T08:28:52.782Z,13.70
2022-09-25T08:31:19.574Z,13.70
2022-09-25T08:33:49.209Z,13.60
2022-09-25T08:36:16.243Z,13.50
2022-09-25T08:38:45.773Z,13.50
2022-09-25T08:41:21.758Z,13.50
2022-09-25T08:43:59.690Z,13.40
2022-09-25T08:46:53.238Z,13.40
2022-09-25T08:49:24.900Z,13.30
2022-09-25T08:51:52.758Z,13.30
2022-09-25T08:54:22.513Z,13.30
2022-09-25T08:56:50.364Z,13.30
2022-09-25T08:59:35.003Z,13.20
2022-09-25T09:02:10.659Z,13.20
2022-09-25T09:04:41.731Z,13.20
2022-09-25T09:07:27.537Z,13.20
2022-09-25T09:09:57.429Z,13.20
2022-09-25T09:12:37.202Z,13.20
2022-09-25T09:15:22.106Z,13.30
2022-09-25T09:17:48.694Z,13.20
2022-09-25T09:20:17.697Z,13.20
2022-09-25T09:22:48.806Z,13.20
2022-09-25T09:28:08.022Z,13.20
2022-09-25T09:30:36.754Z,13.10
2022-09-25T09:33:21.929Z,13.00
2022-09-25T09:35:57.139Z,13.10
2022-09-25T09:38:36.437Z,13.10
2022-09-25T09:41:12.905Z,13.10
2022-09-25T09:44:15.082Z,13.10
2022-09-25T09:46:44.685Z,13.10
2022-09-25T09:49:15.842Z,13.10
2022-09-25T09:51:49.712Z,13.10
2022-09-25T09:54:16.211Z,13.10
2022-09-25T09:56:44.671Z,13.10
2022-09-25T09:59:17.964Z,13.10
2022-09-25T10:01:46.212Z,13.10
2022-09-25T10:04:16.636Z,13.10
2022-09-25T10:06:52.650Z,13.30
2022-09-25T10:09:19.295Z,13.30
2022-09-25T10:11:49.722Z,13.40
2022-09-25T10:14:21.195Z,13.40
2022-09-25T10:16:51.968Z,13.40
2022-09-25T10:19:23.536Z,13.50
2022-09-25T10:21:53.044Z,13.50
2022-09-25T10:24:41.153Z,13.50
2022-09-25T10:27:23.617Z,13.50
2022-09-25T10:30:17.860Z,13.60
2022-09-25T10:33:07.022Z,13.60
2022-09-25T10:35:39.546Z,13.60
2022-09-25T10:38:18.834Z,13.70
2022-09-25T10:40:47.489Z,13.70
2022-09-25T10:43:14.103Z,13.70
2022-09-25T10:45:40.840Z,13.70
2022-09-25T10:48:45.329Z,13.70
2022-09-25T10:51:14.515Z,13.70
2022-09-25T10:53:41.023Z,13.70
2022-09-25T10:56:12.201Z,13.80
2022-09-25T10:58:43.289Z,13.80
2022-09-25T11:01:13.176Z,13.80
2022-09-25T11:03:45.644Z,13.80
2022-09-25T11:06:20.996Z,13.80
2022-09-25T11:08:50.522Z,13.90
2022-09-25T11:11:21.550Z,13.90
2022-09-25T11:13:50.585Z,13.90
2022-09-25T11:16:17.320Z,13.90
2022-09-25T11:18:45.542Z,13.90
2022-09-25T11:21:18.388Z,13.90
2022-09-25T11:24:05.183Z,13.90
2022-09-25T11:26:38.187Z,14.00
2022-09-25T11:29:25.466Z,14.00
2022-09-25T11:31:55.456Z,13.90
2022-09-25T11:34:30.777Z,13.90
2022-09-25T11:37:10.403Z,14.00
2022-09-25T11:40:00.697Z,14.00
2022-09-25T11:42:36.945Z,14.00
2022-09-25T11:45:08.163Z,14.00
2022-09-25T11:47:57.634Z,14.00
2022-09-25T11:50:29.010Z,14.00
2022-09-25T11:53:01.762Z,13.90
2022-09-25T11:55:43.552Z,14.00
2022-09-25T11:58:14.339Z,14.00
2022-09-25T12:00:44.950Z,14.00
2022-09-25T12:03:24.566Z,14.00
2022-09-25T12:06:00.195Z,14.00
2022-09-25T12:08:39.462Z,14.00
2022-09-25T12:11:11.664Z,14.00
2022-09-25T12:13:45.648Z,14.00
2022-09-25T12:16:12.669Z,14.00
2022-09-25T12:18:50.578Z,14.00
2022-09-25T12:21:20.275Z,14.00
2022-09-25T12:23:56.022Z,14.00
2022-09-25T12:26:37.614Z,14.00
2022-09-25T12:29:13.023Z,14.00
2022-09-25T12:31:42.791Z,14.10
2022-09-25T12:34:09.282Z,14.00
2022-09-25T12:36:44.910Z,14.10
2022-09-25T12:39:25.621Z,14.00
2022-09-25T12:42:12.622Z,14.00
2022-09-25T12:44:55.414Z,14.00
2022-09-25T12:47:42.003Z,13.90
2022-09-25T12:50:11.908Z,14.00
2022-09-25T12:52:40.983Z,13.90
2022-09-25T12:55:13.587Z,13.90
2022-09-25T12:57:48.609Z,13.90
2022-09-25T13:00:19.065Z,13.90
2022-09-25T13:02:45.923Z,13.90
2022-09-25T13:05:12.484Z,13.90
2022-09-25T13:07:58.127Z,13.90
2022-09-25T13:10:42.020Z,13.90
2022-09-25T13:13:34.992Z,13.90
2022-09-25T13:16:05.151Z,13.80
2022-09-25T13:18:34.096Z,13.80
2022-09-25T13:21:21.704Z,13.70
2022-09-25T13:23:49.866Z,13.70
2022-09-25T13:26:18.106Z,13.80
2022-09-25T13:28:50.417Z,13.80
2022-09-25T13:31:30.252Z,13.90
2022-09-25T13:34:09.561Z,13.90
2022-09-25T13:36:48.162Z,13.90
2022-09-25T13:39:54.015Z,14.00
2022-09-25T13:42:21.270Z,14.00
2022-09-25T13:44:49.338Z,14.00
2022-09-25T13:47:23.550Z,14.00
2022-09-25T13:50:18.461Z,14.10
2022-09-25T13:52:47.764Z,14.10
2022-09-25T13:55:14.667Z,14.10
2022-09-25T13:57:57.291Z,14.10
2022-09-25T14:00:26.717Z,14.10
2022-09-25T14:03:01.015Z,14.20
2022-09-25T14:05:35.928Z,14.20
2022-09-25T14:08:08.548Z,14.20
2022-09-25T14:10:35.581Z,14.20
2022-09-25T14:13:06.967Z,14.20
2022-09-25T14:15:38.718Z,14.20
2022-09-25T14:18:09.199Z,14.30
2022-09-25T14:20:40.324Z,14.30
2022-09-25T14:23:11.812Z,14.30
2022-09-25T14:25:42.667Z,14.30
2022-09-25T14:28:28.889Z,14.30
2022-09-25T14:31:14.486Z,14.30
2022-09-25T14:33:47.038Z,14.30
2022-09-25T14:36:37.063Z,14.30
2022-09-25T14:39:21.738Z,14.30
2022-09-25T14:41:54.360Z,14.40
2022-09-25T14:44:27.690Z,14.40
2022-09-25T14:46:55.179Z,14.40
2022-09-25T14:49:24.817Z,14.40
2022-09-25T14:51:51.738Z,14.50
2022-09-25T14:54:22.052Z,14.50
2022-09-25T14:56:50.488Z,14.50
2022-09-25T14:59:19.708Z,14.50
2022-09-25T15:01:50.371Z,14.50
2022-09-25T15:04:31.700Z,14.50
2022-09-25T15:06:59.568Z,14.50
2022-09-25T15:09:47.080Z,14.50
2022-09-25T15:12:18.283Z,14.50
2022-09-25T15:14:57.839Z,14.50
2022-09-25T15:17:24.712Z,14.50
2022-09-25T15:19:51.613Z,14.50
2022-09-25T15:22:25.676Z,14.50
2022-09-25T15:24:54.345Z,14.50
2022-09-25T15:27:22.567Z,14.50
2022-09-25T15:29:49.978Z,14.50
2022-09-25T15:32:18.363Z,14.50
2022-09-25T15:34:47.690Z,14.50
2022-09-25T15:37:22.201Z,14.50
2022-09-25T15:39:48.732Z,14.50
2022-09-25T15:42:15.332Z,14.50
2022-09-25T15:44:44.138Z,14.60
2022-09-25T15:47:30.621Z,14.50
2022-09-25T15:49:59.629Z,14.50
2022-09-25T15:52:32.290Z,14.50
2022-09-25T15:55:00.513Z,14.50
2022-09-25T15:57:29.010Z,14.50
2022-09-25T16:00:14.863Z,14.50
2022-09-25T16:03:16.405Z,14.50
2022-09-25T16:05:45.328Z,14.50
2022-09-25T16:08:27.329Z,14.50
2022-09-25T16:11:17.409Z,14.50
2022-09-25T16:13:46.580Z,14.40
2022-09-25T16:16:20.867Z,14.40
2022-09-25T16:18:47.688Z,14.40
2022-09-25T16:21:16.668Z,14.40
2022-09-25T16:23:43.885Z,14.40
2022-09-25T16:26:14.746Z,14.40
2022-09-25T16:28:46.341Z,14.40
2022-09-25T16:31:12.948Z,14.40
2022-09-25T16:33:41.683Z,14.40
2022-09-25T16:36:17.737Z,14.40
2022-09-25T16:39:05.700Z,14.40
2022-09-25T16:41:32.995Z,14.30
2022-09-25T16:44:14.409Z,14.30
2022-09-25T16:46:44.004Z,14.30
2022-09-25T16:49:12.136Z,14.30
2022-09-25T16:51:44.986Z,14.30
2022-09-25T16:54:12.759Z,14.30
2022-09-25T16:56:43.151Z,14.30
2022-09-25T16:59:16.169Z,14.20
2022-09-25T17:01:47.465Z,14.20
2022-09-25T17:04:15.626Z,14.20
2022-09-25T17:06:44.292Z,14.20
2022-09-25T17:09:12.125Z,14.20
2022-09-25T17:11:42.084Z,14.10
2022-09-25T17:14:16.542Z,14.10
2022-09-25T17:16:43.183Z,14.10
2022-09-25T17:19:16.004Z,14.10
2022-09-25T17:21:42.690Z,14.10
2022-09-25T17:24:13.024Z,14.10
2022-09-25T17:26:40.233Z,14.10
2022-09-25T17:29:06.977Z,14.00
2022-09-25T17:31:33.627Z,14.00
2022-09-25T17:34:00.275Z,14.10
2022-09-25T17:36:27.190Z,14.00
2022-09-25T17:38:53.744Z,14.00
2022-09-25T17:41:32.016Z,14.00
2022-09-25T17:44:00.823Z,14.00
2022-09-25T17:46:31.430Z,13.90
2022-09-25T17:48:59.120Z,13.90
2022-09-25T17:51:29.469Z,13.90
2022-09-25T17:53:56.669Z,13.90
2022-09-25T17:56:24.023Z,13.90
2022-09-25T17:58:51.092Z,13.80
2022-09-25T18:01:22.273Z,13.80
2022-09-25T18:03:49.848Z,13.90
2022-09-25T18:06:16.390Z,13.80
2022-09-25T18:08:44.448Z,13.80
2022-09-25T18:11:12.454Z,13.70
2022-09-25T18:13:41.745Z,13.70
2022-09-25T18:16:20.532Z,13.60
2022-09-25T18:19:06.185Z,13.60
2022-09-25T18:21:51.668Z,13.50
2022-09-25T18:24:18.195Z,13.40
2022-09-25T18:26:47.759Z,13.40
2022-09-25T18:29:16.725Z,13.40
2022-09-25T18:31:44.114Z,13.40
2022-09-25T18:34:11.087Z,13.40
2022-09-25T18:36:37.909Z,13.30
2022-09-25T18:39:04.623Z,13.30
2022-09-25T18:41:31.280Z,13.20
2022-09-25T18:44:00.106Z,13.20
2022-09-25T18:46:29.026Z,13.20
2022-09-25T18:48:57.619Z,13.20
2022-09-25T18:51:24.516Z,13.20
2022-09-25T18:53:51.882Z,13.10
2022-09-25T18:56:21.558Z,13.00
2022-09-25T18:58:48.976Z,13.00
2022-09-25T19:01:15.754Z,13.00
2022-09-25T19:03:44.504Z,13.00
2022-09-25T19:06:12.411Z,12.90
2022-09-25T19:08:38.975Z,12.90
2022-09-25T19:11:12.065Z,12.90
2022-09-25T19:13:38.780Z,12.90
2022-09-25T19:16:08.383Z,12.80
2022-09-25T19:18:35.361Z,12.80
2022-09-25T19:21:01.991Z,12.70
2022-09-25T19:23:28.533Z,12.70
2022-09-25T19:26:00.496Z,12.60
2022-09-25T19:28:27.014Z,12.60
2022-09-25T19:30:57.658Z,12.60
2022-09-25T19:33:25.240Z,12.50
2022-09-25T19:36:03.562Z,12.50
2022-09-25T19:38:34.125Z,12.50
2022-09-25T19:41:03.357Z,12.50
2022-09-25T19:43:34.146Z,12.40
2022-09-25T19:46:00.765Z,12.40
2022-09-25T19:48:27.492Z,12.30
2022-09-25T19:50:54.156Z,12.30
2022-09-25T19:53:22.798Z,12.30
2022-09-25T19:55:53.131Z,12.20
2022-09-25T19:58:23.308Z,12.20
2022-09-25T20:00:53.436Z,12.20
2022-09-25T20:03:20.175Z,12.20
2022-09-25T20:05:48.788Z,12.20
2022-09-25T20:08:15.657Z,12.20
2022-09-25T20:10:42.191Z,12.10
2022-09-25T20:13:12.140Z,12.10
2022-09-25T20:15:45.675Z,12.10
2022-09-25T20:18:12.233Z,12.10
2022-09-25T20:20:38.815Z,12.00
2022-09-25T20:23:05.421Z,12.00
2022-09-25T20:25:34.288Z,11.90
2022-09-25T20:28:00.950Z,11.90
2022-09-25T20:30:35.372Z,11.90
2022-09-25T20:33:04.673Z,11.80
2022-09-25T20:35:31.206Z,11.80
2022-09-25T20:37:57.779Z,11.80
2022-09-25T20:40:24.346Z,11.80
2022-09-25T20:42:50.937Z,11.70
2022-09-25T20:45:17.677Z,11.70
2022-09-25T20:47:46.364Z,11.70
2022-09-25T20:50:13.140Z,11.60
2022-09-25T20:52:42.066Z,11.60
2022-09-25T20:55:09.263Z,11.50
2022-09-25T20:57:35.857Z,11.50
2022-09-25T21:00:02.412Z,11.40
2022-09-25T21:02:29.546Z,11.40
2022-09-25T21:04:56.865Z,11.40
2022-09-25T21:07:25.412Z,11.40
2022-09-25T21:09:56.910Z,11.40
2022-09-25T21:12:23.467Z,11.30
2022-09-25T21:14:50.377Z,11.30
2022-09-25T21:17:19.499Z,11.30
2022-09-25T21:19:51.785Z,11.30
2022-09-25T21:22:18.508Z,11.30
2022-09-25T21:24:45.026Z,11.30
2022-09-25T21:27:11.789Z,11.20
2022-09-25T21:29:38.388Z,11.20
2022-09-25T21:32:07.387Z,11.10
2022-09-25T21:34:34.063Z,11.10
2022-09-25T21:37:00.610Z,11.10
2022-09-25T21:39:27.148Z,11.10
2022-09-25T21:41:53.874Z,11.00
2022-09-25T21:44:21.266Z,11.00
2022-09-25T21:46:47.812Z,11.00
2022-09-25T21:49:18.278Z,11.00
2022-09-25T21:51:47.552Z,11.00
2022-09-25T21:54:16.735Z,10.90
2022-09-25T21:56:44.378Z,10.90
2022-09-25T21:59:11.544Z,10.90
2022-09-25T22:01:39.324Z,10.80
2022-09-25T22:04:09.254Z,10.80
2022-09-25T22:06:37.098Z,10.70
2022-09-25T22:09:05.515Z,10.80
2022-09-25T22:11:34.630Z,10.70
2022-09-25T22:14:01.764Z,10.70
2022-09-25T22:16:32.901Z,10.60
2022-09-25T22:19:00.820Z,10.60
2022-09-25T22:21:33.270Z,10.60
2022-09-25T22:23:59.862Z,10.60
2022-09-25T22:26:27.266Z,10.60
2022-09-25T22:28:54.152Z,10.50
2022-09-25T22:31:22.278Z,10.50
2022-09-25T22:33:52.293Z,10.50
2022-09-25T22:36:21.353Z,10.40
2022-09-25T22:38:47.939Z,10.40
2022-09-25T22:41:14.686Z,10.40
2022-09-25T22:43:41.627Z,10.30
2022-09-25T22:46:09.682Z,10.20
2022-09-25T22:48:36.432Z,10.20
2022-09-25T22:51:07.169Z,10.20
2022-09-25T22:53:34.776Z,10.20
2022-09-25T22:56:14.215Z,10.10
2022-09-25T22:58:41.527Z,10.10
2022-09-25T23:01:11.312Z,10.10
2022-09-25T23:03:38.114Z,10.10
2022-09-25T23:06:04.702Z,10.10
2022-09-25T23:08:31.667Z,10.00
2022-09-25T23:11:07.579Z,10.00
2022-09-25T23:13:37.287Z,10.00
2022-09-25T23:16:07.348Z,10.00
2022-09-25T23:18:35.031Z,9.90
2022-09-25T23:21:01.736Z,9.90
2022-09-25T23:23:28.578Z,10.00
2022-09-25T23:25:55.116Z,9.90
2022-09-25T23:28:22.027Z,9.90
2022-09-25T23:30:51.063Z,9.90
2022-09-25T23:33:19.826Z,9.80
2022-09-25T23:35:46.454Z,9.90
2022-09-25T23:38:15.166Z,9.90
2022-09-25T23:40:41.801Z,9.80
2022-09-25T23:43:08.342Z,9.80
2022-09-25T23:45:34.936Z,9.80
2022-09-25T23:48:06.456Z,9.80
2022-09-25T23:50:32.981Z,9.70
2022-09-25T23:52:59.971Z,9.70
2022-09-25T23:55:28.598Z,9.70
2022-09-25T23:57:55.146Z,9.70
